Cedar City, Utah Weather observations

Data are for observation ending at time listed.
 Day   Time    Ave.   Ave.  Ave.  Vector   Max.   Stn.    Total    Solar   Ave.  
  of    of     Air    Rel.  Wind   Wind    Wind   Baro.  Precip.   Rad.    Soil  
Year   Day     Temp.  Hum.  Speed  Dir.    Gust   Pres.                    Temp. 
2014   (MST)    F      %     mph   deg.    mph     mb.     in.     W/m2     F   
------------------------------------------------------------------------------
 205    9:30   81.4    20    2.5   194      7.3   826.7    0.00     207    77.8
 205    9:40   82.3    19    1.9   183      8.8   826.8    0.00     231    77.8
 205    9:50   82.5    20    2.2   187      8.8   826.8    0.00     222    77.8
 205   10:00   82.6    19    2.0   189      6.5   826.9    0.00     220    77.8
 205   10:10   82.6    18    2.4   191      7.2   826.8    0.00     254    77.8
 205   10:20   83.0    18    3.0   192      8.4   826.8    0.00     276    77.9
 205   10:30   83.1    18    3.1   194      7.9   826.8    0.00     286    77.9
 205   10:40   83.3    17    3.1   190     10.8   826.8    0.00     279    77.9
 205   10:50   83.4    18    2.6   172      8.6   826.7    0.00     305    77.9
 205   11:00   84.5    19    2.1   196      6.1   826.8    0.00     346    78.0
 205   11:10   84.9    18    2.7   181      9.8   826.8    0.00     399    78.0
 205   11:20   85.0    18    2.8   180      9.1   826.8    0.00     467    78.1
 205   11:30   85.8    18    2.7   191     10.0   826.8    0.00     511    78.1
 205   11:40   86.4    16    2.1   164      9.5   826.7    0.00     551    78.2
 205   11:50   87.1    17    2.7   173      9.0   826.7    0.00     796    78.2
 205   12:00   89.2    16    3.7   195     11.1   826.4    0.00    1035    78.3
 205   12:10   90.0    15    4.1   201      9.6   826.4    0.00    1068    78.4
 205   12:20   90.2    15    4.0   202     12.3   826.5    0.00     861    78.4
 205   12:30   88.2    15    3.2   201     10.3   826.3    0.00     433    78.4
 205   12:40   87.0    16    4.8   213     12.7   826.2    0.00     476    78.4
 205   12:50   86.2    16    3.1   207     10.4   826.1    0.00     519    78.5
 205   13:00   87.5    18    2.3   177      9.3   826.1    0.00     785    78.6
 205   13:10   89.7    18    2.0   163      9.6   826.0    0.00    1028    78.7
 205   13:20   90.7    17    1.5   210      7.2   825.9    0.00     997    78.8
 205   13:30   91.1    16    2.5   193      9.9   825.7    0.00     798    78.9
 205   13:40   90.3    17    2.2   202      8.9   825.5    0.00     945    78.9
 205   13:50   90.5    16    3.1   219     11.8   825.5    0.00     921    78.9
 205   14:00   90.8    17    2.9   198      9.9   825.3    0.00     913    79.0
 205   14:10   90.5    16    2.6   236     10.2   825.3    0.00     908    79.0
 205   14:20   91.3    16    3.2   216      9.8   825.3    0.00     817    79.0
 205   14:30   91.0    16    2.8   239     10.7   825.2    0.00     794    79.1
 205   14:40   91.6    17    2.5   207      8.7   825.0    0.00     844    79.1
 205   14:50   91.9    16    2.3   220      8.9   825.0    0.00     837    79.2
 205   15:00   92.5    16    2.5   204     12.2   824.8    0.00     747    79.3
 205   15:10   92.5    16    3.0   193     10.9   824.7    0.00     782    79.3
 205   15:20   92.6    16    3.1   201      7.8   824.7    0.00     699    79.4
 205   15:30   92.7    16    1.9   215     11.0   824.4    0.00     749    79.5
 205   15:40   93.0    16    2.1   202     13.2   824.4    0.00     733    79.6
 205   15:50   93.0    15    2.0   247      9.0   824.2    0.00     709    79.6
 205   16:00   92.8    16    2.7   198      9.6   824.1    0.00     683    79.7
 205   16:10   92.7    16    2.6   196      9.1   824.1    0.00     652    79.7
 205   16:20   93.3    16    0.9   180      8.8   823.8    0.00     623    79.8
 205   16:30   93.6    16    1.5   192      7.2   824.0    0.00     588    79.9
 205   16:40   93.8    15    2.3   194      8.0   823.7    0.00     560    80.0
 205   16:50   93.3    15    2.1   233      7.3   823.7    0.00     530    80.0
 205   17:00   91.9    14    6.0   273     16.3   823.5    0.00     507    80.1
 205   17:10   92.1    15    2.7   210      8.0   823.5    0.00     480    80.2
 205   17:20   94.6    14    1.1   248      8.0   823.5    0.00     451    80.3
 205   17:30   93.2    15    2.0   229     10.4   823.4    0.00     416    80.3
 205   17:40   92.0    15    3.1   263     18.0   823.4    0.00     381    80.4
 205   17:50   93.4    16    2.2   198      7.4   823.4    0.00     352    80.4
 205   18:00   93.0    15    2.4   239     10.5   823.4    0.00     318    80.4
 205   18:10   91.2    16    2.6   214      9.5   823.4    0.00     243    80.5
 205   18:20   89.8    16    2.0   235      6.7   823.4    0.00      44    80.5
 205   18:30   86.8    18    1.2   171      4.2   823.3    0.00      27    80.6
 205   18:40   87.9    17    2.3   203      7.3   823.3    0.00     145    80.7
 205   18:50   88.1    18    2.4   186      6.4   823.4    0.00      23    80.7
 205   19:00   86.3    19    2.4   192      9.6   823.4    0.00      56    80.8
 205   19:10   86.5    19    2.5   210      5.8   823.4    0.00      50    80.9
 205   19:20   87.3    19    2.0   184      5.9   823.5    0.00      59    80.9
 205   19:30   86.9    19    1.6   180      6.9   823.6    0.00      33    80.9
 205   19:40   86.3    20    2.1   207      5.1   823.7    0.00      16    80.9
 205   19:50   84.6    20    2.3   192      7.6   823.7    0.00       7    80.9
 205   20:00   83.1    22    1.9   185      6.1   823.7    0.00       3    80.9
 205   20:10   82.0    23    1.8   184      6.0   823.8    0.00       0    80.9
 205   20:20   81.0    24    1.1   180      5.5   823.8    0.00       0    80.9
 205   20:30   80.4    24    0.6   147      2.9   823.8    0.00       0    80.9
 205   20:40   80.3    24    0.4   139      2.9   823.9    0.00       0    80.9
 205   20:50   80.2    25    0.8   225      3.0   824.1    0.00       0    80.9
 205   21:00   80.3    25    2.4   216      5.8   824.3    0.00       0    80.9
 205   21:10   80.6    26    3.1   184      8.5   824.6    0.00       0    80.9
 205   21:20   80.3    28    2.6   175      8.2   824.7    0.00       0    80.8
 205   21:30   80.0    28    2.8   185      7.2   824.8    0.00       0    80.8
 205   21:40   79.4    31    1.9   206      4.7   824.8    0.00       0    80.7
 205   21:50   76.7    37    3.0   199      9.7   824.8    0.00       0    80.6
 205   22:00   75.9    38    3.4   196     10.2   824.7    0.00       0    80.6
 205   22:10   75.6    39    3.1   186      7.7   824.7    0.00       0    80.5
 205   22:20   75.5    38    2.4   175      8.2   824.7    0.00       0    80.5
 205   22:30   74.5    41    2.9   180      7.5   824.7    0.00       0    80.5
 205   22:40   74.5    40    2.6   181      8.1   824.7    0.00       0    80.3
 205   22:50   74.5    40    2.2   185      7.2   824.8    0.00       0    80.3
 205   23:00   75.9    34    2.1   206      5.3   824.8    0.00       0    80.2
 205   23:10   76.4    33    1.0   233      2.5   824.8    0.00       0    80.1
 205   23:20   75.6    36    2.0   175      5.5   824.8    0.00       0    80.0
 205   23:30   75.8    36    2.5   187      6.7   824.8    0.00       0    79.8
 205   23:40   76.7    34    2.4   192     10.2   824.8    0.00       0    79.7
 205   23:50   77.3    33    2.7   202      7.5   824.8    0.00       0    79.6
 206    0:00   77.2    33    2.3   186      6.6   824.8    0.00       0    79.5
 206    0:10   76.9    35    2.4   187      6.1   824.9    0.00       0    79.3
 206    0:20   76.3    36    1.5   191      6.8   825.1    0.00       0    79.2
 206    0:30   75.9    35    2.2   184      9.0   825.2    0.00       0    79.0
 206    0:40   76.1    34    1.6   200      5.1   825.2    0.00       0    78.9
 206    0:50   76.0    35    2.2   187      5.8   825.1    0.00       0    78.8
 206    1:00   75.3    35    2.3   178      9.6   825.1    0.00       0    78.6
 206    1:10   76.3    33    2.2   173      6.1   824.9    0.00       0    78.5
 206    1:20   76.7    32    2.4   183      7.8   824.9    0.00       0    78.4
 206    1:30   77.2    32    2.6   182      7.8   824.9    0.00       0    78.3
 206    1:40   77.4    31    1.8   167      6.9   824.9    0.00       0    78.2
 206    1:50   77.7    31    2.2   176      7.4   824.8    0.00       0    78.1
 206    2:00   77.2    31    2.1   174      9.5   824.8    0.00       0    78.0
 206    2:10   76.6    33    1.8   183      6.8   824.8    0.00       0    77.8
 206    2:20   75.5    34    1.7   189      6.3   824.9    0.00       0    77.6
 206    2:30   74.8    34    1.4   208      4.5   824.9    0.00       0    77.3
 206    2:40   75.2    33    2.0   273      7.9   824.8    0.00       0    77.0
 206    2:50   74.8    34    0.9   303      3.4   824.9    0.00       0    77.0
 206    3:00   74.0    35    0.9    73      2.4   824.9    0.00       0    77.0
 206    3:10   73.1    37    0.8    83      2.3   824.8    0.00       0    76.9
 206    3:20   72.4    38    0.4   109      1.8   824.9    0.00       0    76.9
 206    3:30   72.2    37    1.2    97      2.3   824.8    0.00       0    76.8
 206    3:40   72.3    37    0.9   130      2.9   824.8    0.00       0    76.7
 206    3:50   71.9    36    2.0   117      5.5   824.9    0.00       0    76.6
 206    4:00   73.0    34    2.9   108      6.3   824.9    0.00       0    76.6
 206    4:10   72.5    35    1.4   143      3.9   825.0    0.00       0    76.5
 206    4:20   71.8    37    1.7   138      5.3   825.0    0.00       0    76.4
 206    4:30   70.7    39    0.9   150      3.1   825.1    0.00       0    76.3
 206    4:40   70.0    39    0.9   136      3.6   825.1    0.00       0    76.2
 206    4:50   70.9    36    3.1   104      6.8   825.1    0.00       0    76.1
 206    5:00   72.0    35    3.3   107      6.8   825.2    0.00       0    76.0
 206    5:10   72.3    35    2.2   117      6.4   825.2    0.00       0    75.9
 206    5:20   71.7    37    0.8   160      2.5   825.4    0.00       0    75.9
 206    5:30   71.3    37    1.5   133      3.2   825.4    0.00       1    75.8
 206    5:40   71.7    36    1.2   108      3.1   825.4    0.00       4    75.7
 206    5:50   71.0    39    0.4   126      1.4   825.5    0.00       9    75.6
 206    6:00   70.9    38    0.7    83      2.5   825.5    0.00      18    75.5
 206    6:10   71.7    39    1.0   256      4.3   825.6    0.00      25    75.4
 206    6:20   72.8    40    0.5   133      1.5   825.6    0.00      61    75.4
 206    6:30   75.6    38    0.6   195      2.6   825.6    0.00     125    75.4
 206    6:40   79.3    34    0.2   166      2.3   825.7    0.00     183    75.3
 206    6:50   81.9    31    1.2   183      4.7   825.7    0.00     218    75.3
 206    7:00   82.1    30    1.9   179      8.0   825.7    0.00     258    75.2
 206    7:10   82.1    29    1.6   244      4.2   825.8    0.00     215    75.2
 206    7:20   82.3    29    1.3   223      4.3   825.8    0.00     299    75.2
 206    7:30   83.1    29    1.2   242      3.9   825.9    0.00     280    75.1
 206    7:40   82.6    28    2.4   231      7.0   825.9    0.00     392    75.1
 206    7:50   84.0    26    2.7   217     13.7   825.9    0.00     394    75.2
 206    8:00   84.4    26    2.9   200      8.6   825.9    0.00     474    75.2
 206    8:10   86.3    25    2.3   214      6.8   825.9    0.00     526    75.3
 206    8:20   86.4    24    2.5   230      7.0   826.0    0.00     510    75.4
 206    8:30   84.8    25    2.5   209      8.5   826.0    0.00     324    75.4
 206    8:40   84.1    25    2.1   201      8.0   826.1    0.00     359    75.5
 206    8:50   85.0    25    2.8   236      7.7   826.1    0.00     548    75.7
 206    9:00   86.6    24    3.0   214      8.6   826.1    0.00     689    75.8
 206    9:10   87.9    23    2.8   202      8.2   826.1    0.00     689    75.9
 206    9:20   87.5    23    3.1   200     11.3   826.2    0.00     393    76.0

Return to Cedar City, Utah graphs page.


Western Regional Climate Center,wrcc@dri.edu